DLH38Y EDDM-LOWK
Flight info
| Callsign | DLH38Y |
|---|---|
| Flight time | 0h 36m |
| Altitude | 23000 |
| Route | VAVOR3E VAVOR M867 RADIZ DCT EVAXI EVAXI1T |
| Aircraft | A319/M-SDE3FGHIRWY/LB1 |
Departure
| Time | 2026-05-09 08:11 |
|---|---|
| Airport | Munich Airport (EDDM) |
Arrival
| Time | 2026-05-09 08:48 |
|---|---|
| Airport | Klagenfurt Airport (LOWK) |
| Time | Latitude | Longitude | Altitude | Speed | Heading |
|---|---|---|---|---|---|
| 2026-05-09 07:33 | 48.35303 | 11.80031 | 1473 ft | 0 kts | 263° |
| 2026-05-09 07:55 | 48.35305 | 11.80060 | 1469 ft | 4 kts | 263° |
| 2026-05-09 07:56 | 48.35308 | 11.80098 | 1474 ft | 2 kts | 263° |
| 2026-05-09 07:56 | 48.35312 | 11.80126 | 1471 ft | 4 kts | 213° |
| 2026-05-09 07:56 | 48.35334 | 11.80131 | 1474 ft | 4 kts | 173° |
| 2026-05-09 07:56 | 48.35345 | 11.80129 | 1481 ft | 0 kts | 173° |
| 2026-05-09 08:00 | 48.35337 | 11.80131 | 1478 ft | 5 kts | 173° |
| 2026-05-09 08:00 | 48.35289 | 11.80139 | 1480 ft | 6 kts | 173° |
| 2026-05-09 08:01 | 48.35242 | 11.80147 | 1479 ft | 7 kts | 173° |
| 2026-05-09 08:01 | 48.35191 | 11.80155 | 1479 ft | 8 kts | 181° |
| 2026-05-09 08:01 | 48.35160 | 11.80085 | 1485 ft | 11 kts | 263° |
| 2026-05-09 08:01 | 48.35150 | 11.79950 | 1485 ft | 14 kts | 263° |
| 2026-05-09 08:02 | 48.35138 | 11.79799 | 1482 ft | 15 kts | 263° |
| 2026-05-09 08:02 | 48.35104 | 11.79661 | 1482 ft | 15 kts | 208° |
| 2026-05-09 08:02 | 48.35005 | 11.79646 | 1478 ft | 15 kts | 215° |
| 2026-05-09 08:02 | 48.34947 | 11.79542 | 1482 ft | 14 kts | 183° |
| 2026-05-09 08:03 | 48.34850 | 11.79561 | 1481 ft | 14 kts | 174° |
| 2026-05-09 08:03 | 48.34785 | 11.79478 | 1478 ft | 14 kts | 263° |
| 2026-05-09 08:03 | 48.34773 | 11.79324 | 1485 ft | 18 kts | 263° |
| 2026-05-09 08:03 | 48.34750 | 11.79025 | 1480 ft | 37 kts | 263° |
| 2026-05-09 08:04 | 48.34722 | 11.78662 | 1474 ft | 30 kts | 263° |
| 2026-05-09 08:04 | 48.34698 | 11.78355 | 1485 ft | 30 kts | 263° |
| 2026-05-09 08:04 | 48.34675 | 11.78047 | 1485 ft | 30 kts | 264° |
| 2026-05-09 08:04 | 48.34651 | 11.77739 | 1481 ft | 30 kts | 263° |
| 2026-05-09 08:05 | 48.34627 | 11.77432 | 1485 ft | 30 kts | 263° |
| 2026-05-09 08:05 | 48.34604 | 11.77125 | 1485 ft | 30 kts | 263° |
| 2026-05-09 08:05 | 48.34580 | 11.76817 | 1480 ft | 30 kts | 263° |
| 2026-05-09 08:05 | 48.34556 | 11.76511 | 1485 ft | 30 kts | 264° |
| 2026-05-09 08:06 | 48.34534 | 11.76205 | 1480 ft | 30 kts | 263° |
| 2026-05-09 08:06 | 48.34509 | 11.75898 | 1481 ft | 29 kts | 263° |
| 2026-05-09 08:06 | 48.34485 | 11.75596 | 1477 ft | 29 kts | 263° |
| 2026-05-09 08:06 | 48.34464 | 11.75312 | 1482 ft | 23 kts | 263° |
| 2026-05-09 08:07 | 48.34402 | 11.75219 | 1485 ft | 14 kts | 175° |
| 2026-05-09 08:07 | 48.34304 | 11.75237 | 1476 ft | 14 kts | 173° |
| 2026-05-09 08:07 | 48.34209 | 11.75253 | 1475 ft | 8 kts | 173° |
| 2026-05-09 08:07 | 48.34194 | 11.75256 | 1483 ft | 0 kts | 173° |
| 2026-05-09 08:09 | 48.34187 | 11.75258 | 1477 ft | 3 kts | 173° |
| 2026-05-09 08:09 | 48.34148 | 11.75264 | 1475 ft | 8 kts | 173° |
| 2026-05-09 08:09 | 48.34093 | 11.75278 | 1483 ft | 6 kts | 154° |
| 2026-05-09 08:10 | 48.34085 | 11.75324 | 1485 ft | 2 kts | 83° |
| 2026-05-09 08:10 | 48.34085 | 11.75326 | 1485 ft | 1 kts | 83° |
| 2026-05-09 08:10 | 48.34107 | 11.75605 | 1478 ft | 66 kts | 83° |
| 2026-05-09 08:10 | 48.34187 | 11.76647 | 1486 ft | 134 kts | 83° |
| 2026-05-09 08:11 | 48.34310 | 11.78258 | 1776 ft | 161 kts | 83° |
| 2026-05-09 08:11 | 48.34424 | 11.79925 | 2509 ft | 162 kts | 84° |
| 2026-05-09 08:11 | 48.34542 | 11.81632 | 3139 ft | 172 kts | 85° |
| 2026-05-09 08:11 | 48.34681 | 11.83512 | 3616 ft | 189 kts | 84° |
| 2026-05-09 08:12 | 48.35028 | 11.87905 | 4561 ft | 236 kts | 83° |
| 2026-05-09 08:12 | 48.35233 | 11.90418 | 5379 ft | 245 kts | 83° |
| 2026-05-09 08:12 | 48.35362 | 11.92103 | 6047 ft | 246 kts | 84° |
| 2026-05-09 08:13 | 48.35015 | 11.95528 | 7140 ft | 258 kts | 118° |
| 2026-05-09 08:13 | 48.33860 | 11.97600 | 8012 ft | 261 kts | 143° |
| 2026-05-09 08:13 | 48.32420 | 11.99231 | 8962 ft | 264 kts | 144° |
| 2026-05-09 08:13 | 48.30951 | 12.00903 | 9926 ft | 267 kts | 147° |
| 2026-05-09 08:14 | 48.29287 | 12.02163 | 10745 ft | 269 kts | 164° |
| 2026-05-09 08:14 | 48.27403 | 12.02686 | 11270 ft | 285 kts | 181° |
| 2026-05-09 08:14 | 48.25388 | 12.02559 | 11952 ft | 293 kts | 185° |
| 2026-05-09 08:14 | 48.23330 | 12.02415 | 12783 ft | 298 kts | 185° |
| 2026-05-09 08:15 | 48.21241 | 12.02284 | 13627 ft | 303 kts | 185° |
| 2026-05-09 08:15 | 48.19118 | 12.02159 | 14415 ft | 307 kts | 185° |
| 2026-05-09 08:15 | 48.16994 | 12.02040 | 15174 ft | 311 kts | 185° |
| 2026-05-09 08:15 | 48.14816 | 12.02193 | 15915 ft | 317 kts | 173° |
| 2026-05-09 08:16 | 48.12666 | 12.03161 | 16562 ft | 329 kts | 155° |
| 2026-05-09 08:16 | 48.10757 | 12.05086 | 17376 ft | 332 kts | 145° |
| 2026-05-09 08:16 | 48.08906 | 12.07187 | 18157 ft | 335 kts | 145° |
| 2026-05-09 08:16 | 48.07034 | 12.09318 | 18704 ft | 345 kts | 145° |
| 2026-05-09 08:17 | 48.05082 | 12.11536 | 19060 ft | 358 kts | 145° |
| 2026-05-09 08:17 | 48.03083 | 12.13808 | 19425 ft | 370 kts | 145° |
| 2026-05-09 08:17 | 48.01000 | 12.16176 | 19898 ft | 379 kts | 145° |
| 2026-05-09 08:17 | 47.98879 | 12.18583 | 20507 ft | 383 kts | 146° |
| 2026-05-09 08:18 | 47.97473 | 12.20175 | 20927 ft | 385 kts | 146° |
| 2026-05-09 08:18 | 47.94625 | 12.23396 | 21779 ft | 389 kts | 146° |
| 2026-05-09 08:18 | 47.92461 | 12.25840 | 22415 ft | 392 kts | 146° |
| 2026-05-09 08:18 | 47.90275 | 12.28310 | 22969 ft | 396 kts | 147° |
| 2026-05-09 08:19 | 47.88817 | 12.29956 | 23077 ft | 397 kts | 147° |
| 2026-05-09 08:19 | 47.86613 | 12.32444 | 23127 ft | 397 kts | 147° |
| 2026-05-09 08:19 | 47.83688 | 12.35738 | 23125 ft | 397 kts | 147° |
| 2026-05-09 08:19 | 47.81483 | 12.38218 | 23125 ft | 397 kts | 147° |
| 2026-05-09 08:20 | 47.80012 | 12.39872 | 23130 ft | 397 kts | 147° |
| 2026-05-09 08:20 | 47.77806 | 12.42350 | 23130 ft | 397 kts | 147° |
| 2026-05-09 08:20 | 47.75590 | 12.44833 | 23118 ft | 397 kts | 146° |
| 2026-05-09 08:20 | 47.73373 | 12.47311 | 23131 ft | 398 kts | 146° |
| 2026-05-09 08:21 | 47.71157 | 12.49782 | 23127 ft | 398 kts | 146° |
| 2026-05-09 08:21 | 47.68948 | 12.52248 | 23130 ft | 398 kts | 146° |
| 2026-05-09 08:21 | 47.66755 | 12.54702 | 23133 ft | 398 kts | 146° |
| 2026-05-09 08:21 | 47.64543 | 12.57179 | 23135 ft | 398 kts | 146° |
| 2026-05-09 08:22 | 47.62328 | 12.59649 | 23139 ft | 398 kts | 146° |
| 2026-05-09 08:22 | 47.60101 | 12.62124 | 23140 ft | 398 kts | 146° |
| 2026-05-09 08:22 | 47.57908 | 12.64558 | 23131 ft | 398 kts | 146° |
| 2026-05-09 08:22 | 47.55683 | 12.67025 | 23131 ft | 398 kts | 146° |
| 2026-05-09 08:23 | 47.53469 | 12.69481 | 23130 ft | 398 kts | 146° |
| 2026-05-09 08:23 | 47.51252 | 12.71938 | 23112 ft | 398 kts | 146° |
| 2026-05-09 08:23 | 47.49035 | 12.74389 | 23103 ft | 399 kts | 146° |
| 2026-05-09 08:23 | 47.46811 | 12.76845 | 23098 ft | 399 kts | 146° |
| 2026-05-09 08:24 | 47.44584 | 12.79306 | 23101 ft | 400 kts | 146° |
| 2026-05-09 08:24 | 47.42346 | 12.81776 | 23104 ft | 401 kts | 146° |
| 2026-05-09 08:24 | 47.40102 | 12.84246 | 23106 ft | 401 kts | 146° |
| 2026-05-09 08:24 | 47.37892 | 12.86675 | 23110 ft | 402 kts | 146° |
| 2026-05-09 08:25 | 47.35647 | 12.89142 | 23119 ft | 402 kts | 146° |
| 2026-05-09 08:25 | 47.33391 | 12.91618 | 23122 ft | 402 kts | 146° |
| 2026-05-09 08:25 | 47.31142 | 12.94083 | 23128 ft | 402 kts | 146° |
| 2026-05-09 08:25 | 47.28888 | 12.96553 | 23117 ft | 402 kts | 146° |
| 2026-05-09 08:26 | 47.26662 | 12.98990 | 23110 ft | 402 kts | 146° |
| 2026-05-09 08:26 | 47.24411 | 13.01450 | 23106 ft | 403 kts | 146° |
| 2026-05-09 08:26 | 47.22177 | 13.03890 | 23105 ft | 403 kts | 146° |
| 2026-05-09 08:26 | 47.19921 | 13.06353 | 23106 ft | 404 kts | 146° |
| 2026-05-09 08:27 | 47.17661 | 13.08820 | 23107 ft | 404 kts | 146° |
| 2026-05-09 08:27 | 47.15398 | 13.11282 | 23109 ft | 404 kts | 146° |
| 2026-05-09 08:27 | 47.13137 | 13.13736 | 23019 ft | 403 kts | 146° |
| 2026-05-09 08:27 | 47.10890 | 13.16177 | 22515 ft | 400 kts | 146° |
| 2026-05-09 08:28 | 47.08655 | 13.18606 | 22034 ft | 397 kts | 146° |
| 2026-05-09 08:28 | 47.06468 | 13.20981 | 21581 ft | 394 kts | 146° |
| 2026-05-09 08:28 | 47.04275 | 13.23358 | 21130 ft | 390 kts | 146° |
| 2026-05-09 08:28 | 47.02093 | 13.25719 | 20650 ft | 388 kts | 146° |
| 2026-05-09 08:29 | 46.99933 | 13.28055 | 20195 ft | 385 kts | 146° |
| 2026-05-09 08:29 | 46.97791 | 13.30371 | 19748 ft | 381 kts | 146° |
| 2026-05-09 08:29 | 46.95663 | 13.32670 | 19305 ft | 378 kts | 146° |
| 2026-05-09 08:29 | 46.93555 | 13.34944 | 18860 ft | 375 kts | 146° |
| 2026-05-09 08:30 | 46.91457 | 13.37203 | 18430 ft | 371 kts | 146° |
| 2026-05-09 08:30 | 46.89407 | 13.39404 | 17953 ft | 368 kts | 146° |
| 2026-05-09 08:30 | 46.87351 | 13.41606 | 17440 ft | 365 kts | 146° |
| 2026-05-09 08:30 | 46.85308 | 13.43793 | 16937 ft | 363 kts | 146° |
| 2026-05-09 08:31 | 46.83280 | 13.45963 | 16487 ft | 359 kts | 146° |
| 2026-05-09 08:31 | 46.81274 | 13.48111 | 16041 ft | 357 kts | 145° |
| 2026-05-09 08:31 | 46.79431 | 13.50517 | 15600 ft | 356 kts | 133° |
| 2026-05-09 08:31 | 46.78010 | 13.53456 | 15168 ft | 354 kts | 119° |
| 2026-05-09 08:32 | 46.77051 | 13.56802 | 14323 ft | 365 kts | 107° |
| 2026-05-09 08:32 | 46.76526 | 13.60486 | 13239 ft | 378 kts | 101° |
| 2026-05-09 08:32 | 46.75533 | 13.68158 | 11370 ft | 387 kts | 101° |
| 2026-05-09 08:33 | 46.75048 | 13.71829 | 11048 ft | 375 kts | 101° |
| 2026-05-09 08:33 | 46.74563 | 13.75472 | 10919 ft | 356 kts | 101° |
| 2026-05-09 08:33 | 46.74099 | 13.78939 | 10796 ft | 340 kts | 101° |
| 2026-05-09 08:33 | 46.73652 | 13.82258 | 10672 ft | 326 kts | 101° |
| 2026-05-09 08:34 | 46.73225 | 13.85428 | 10545 ft | 313 kts | 101° |
| 2026-05-09 08:34 | 46.72813 | 13.88484 | 10423 ft | 301 kts | 101° |
| 2026-05-09 08:34 | 46.72415 | 13.91434 | 10245 ft | 293 kts | 101° |
| 2026-05-09 08:34 | 46.72032 | 13.94276 | 10006 ft | 287 kts | 101° |
| 2026-05-09 08:35 | 46.71616 | 13.97098 | 9750 ft | 282 kts | 104° |
| 2026-05-09 08:35 | 46.71115 | 13.99803 | 9476 ft | 269 kts | 106° |
| 2026-05-09 08:35 | 46.70598 | 14.02356 | 9220 ft | 256 kts | 107° |
| 2026-05-09 08:35 | 46.70097 | 14.04769 | 9032 ft | 241 kts | 107° |
| 2026-05-09 08:36 | 46.69628 | 14.07032 | 8916 ft | 225 kts | 107° |
| 2026-05-09 08:36 | 46.69201 | 14.09117 | 8687 ft | 207 kts | 107° |
| 2026-05-09 08:36 | 46.68796 | 14.11107 | 8102 ft | 204 kts | 107° |
| 2026-05-09 08:36 | 46.68398 | 14.13088 | 7503 ft | 203 kts | 107° |
| 2026-05-09 08:37 | 46.68002 | 14.15046 | 6931 ft | 201 kts | 108° |
| 2026-05-09 08:37 | 46.67613 | 14.16953 | 6488 ft | 189 kts | 108° |
| 2026-05-09 08:37 | 46.67249 | 14.18716 | 6049 ft | 176 kts | 108° |
| 2026-05-09 08:37 | 46.66909 | 14.20362 | 5589 ft | 169 kts | 107° |
| 2026-05-09 08:38 | 46.66577 | 14.21981 | 5127 ft | 165 kts | 107° |
| 2026-05-09 08:38 | 46.66248 | 14.23602 | 4405 ft | 173 kts | 107° |
| 2026-05-09 08:38 | 46.65906 | 14.25330 | 3606 ft | 181 kts | 105° |
| 2026-05-09 08:38 | 46.65583 | 14.27112 | 2922 ft | 179 kts | 105° |
| 2026-05-09 08:39 | 46.65242 | 14.28815 | 2413 ft | 171 kts | 105° |
| 2026-05-09 08:39 | 46.64922 | 14.30439 | 1978 ft | 162 kts | 106° |
| 2026-05-09 08:39 | 46.64624 | 14.31956 | 1636 ft | 151 kts | 106° |
| 2026-05-09 08:39 | 46.64316 | 14.33485 | 2130 ft | 162 kts | 107° |
| 2026-05-09 08:40 | 46.64000 | 14.35071 | 2976 ft | 165 kts | 106° |
| 2026-05-09 08:40 | 46.63663 | 14.36774 | 3421 ft | 186 kts | 105° |
| 2026-05-09 08:40 | 46.63280 | 14.38695 | 3759 ft | 212 kts | 106° |
| 2026-05-09 08:40 | 46.62848 | 14.40873 | 4236 ft | 236 kts | 106° |
| 2026-05-09 08:41 | 46.62367 | 14.43289 | 4792 ft | 260 kts | 107° |
| 2026-05-09 08:41 | 46.61867 | 14.45788 | 5021 ft | 256 kts | 107° |
| 2026-05-09 08:41 | 46.61382 | 14.48196 | 4984 ft | 240 kts | 107° |
| 2026-05-09 08:41 | 46.60668 | 14.50266 | 4874 ft | 225 kts | 137° |
| 2026-05-09 08:42 | 46.59264 | 14.51087 | 4763 ft | 220 kts | 182° |
| 2026-05-09 08:42 | 46.57904 | 14.50247 | 4709 ft | 216 kts | 227° |
| 2026-05-09 08:42 | 46.57368 | 14.48272 | 4655 ft | 213 kts | 272° |
| 2026-05-09 08:42 | 46.57703 | 14.46155 | 4584 ft | 222 kts | 287° |
| 2026-05-09 08:43 | 46.58167 | 14.43980 | 4540 ft | 225 kts | 286° |
| 2026-05-09 08:43 | 46.58615 | 14.41861 | 4529 ft | 217 kts | 286° |
| 2026-05-09 08:43 | 46.59048 | 14.39831 | 4505 ft | 201 kts | 287° |
| 2026-05-09 08:43 | 46.59442 | 14.37997 | 4551 ft | 180 kts | 287° |
| 2026-05-09 08:44 | 46.59798 | 14.36357 | 4472 ft | 160 kts | 287° |
| 2026-05-09 08:44 | 46.60108 | 14.34926 | 4356 ft | 140 kts | 286° |
| 2026-05-09 08:44 | 46.60367 | 14.33617 | 4133 ft | 136 kts | 285° |
| 2026-05-09 08:44 | 46.60631 | 14.32266 | 3867 ft | 138 kts | 286° |
| 2026-05-09 08:45 | 46.60897 | 14.30908 | 3580 ft | 141 kts | 287° |
| 2026-05-09 08:45 | 46.61168 | 14.29535 | 3301 ft | 140 kts | 286° |
| 2026-05-09 08:45 | 46.61453 | 14.28216 | 3018 ft | 137 kts | 294° |
| 2026-05-09 08:45 | 46.62101 | 14.27213 | 2814 ft | 139 kts | 333° |
| 2026-05-09 08:46 | 46.63046 | 14.26969 | 2657 ft | 138 kts | 4° |
| 2026-05-09 08:46 | 46.63931 | 14.27438 | 2445 ft | 135 kts | 34° |
| 2026-05-09 08:46 | 46.64533 | 14.28469 | 2245 ft | 137 kts | 63° |
| 2026-05-09 08:46 | 46.64801 | 14.29798 | 2010 ft | 138 kts | 84° |
| 2026-05-09 08:47 | 46.64750 | 14.31182 | 1744 ft | 136 kts | 101° |
| 2026-05-09 08:47 | 46.64508 | 14.32516 | 1488 ft | 136 kts | 107° |
| 2026-05-09 08:47 | 46.64265 | 14.33725 | 1463 ft | 107 kts | 107° |
| 2026-05-09 08:47 | 46.64104 | 14.34512 | 1464 ft | 58 kts | 106° |
| 2026-05-09 08:48 | 46.64007 | 14.34993 | 1461 ft | 44 kts | 106° |
| 2026-05-09 08:48 | 46.63939 | 14.35332 | 1457 ft | 18 kts | 105° |
| 2026-05-09 08:48 | 46.63930 | 14.35458 | 1459 ft | 12 kts | 153° |
| 2026-05-09 08:48 | 46.63926 | 14.35386 | 1459 ft | 11 kts | 308° |
| 2026-05-09 08:49 | 46.63953 | 14.35263 | 1461 ft | 15 kts | 286° |
| 2026-05-09 08:49 | 46.63987 | 14.35091 | 1460 ft | 20 kts | 286° |
| 2026-05-09 08:49 | 46.64032 | 14.34873 | 1461 ft | 24 kts | 287° |
| 2026-05-09 08:49 | 46.64084 | 14.34615 | 1461 ft | 28 kts | 286° |
| 2026-05-09 08:50 | 46.64138 | 14.34346 | 1461 ft | 28 kts | 286° |
| 2026-05-09 08:50 | 46.64193 | 14.34073 | 1464 ft | 28 kts | 286° |
| 2026-05-09 08:50 | 46.64250 | 14.33794 | 1464 ft | 29 kts | 286° |
| 2026-05-09 08:50 | 46.64306 | 14.33511 | 1462 ft | 29 kts | 286° |
| 2026-05-09 08:51 | 46.64318 | 14.33447 | 1461 ft | 29 kts | 286° |
| 2026-05-09 08:51 | 46.64331 | 14.33386 | 1461 ft | 29 kts | 286° |
| 2026-05-09 08:51 | 46.64388 | 14.33102 | 1459 ft | 29 kts | 286° |
| 2026-05-09 08:52 | 46.64450 | 14.32895 | 1463 ft | 21 kts | 327° |
| 2026-05-09 08:52 | 46.64582 | 14.32799 | 1464 ft | 21 kts | 334° |
| 2026-05-09 08:52 | 46.64656 | 14.32628 | 1464 ft | 21 kts | 285° |
| 2026-05-09 08:52 | 46.64723 | 14.32482 | 1464 ft | 14 kts | 347° |
| 2026-05-09 08:53 | 46.64816 | 14.32471 | 1464 ft | 9 kts | 351° |
| 2026-05-09 08:53 | 46.64839 | 14.32501 | 1461 ft | 5 kts | 77° |
| 2026-05-09 08:53 | 46.64846 | 14.32546 | 1464 ft | 1 kts | 77° |
| 2026-05-09 08:53 | 46.64846 | 14.32547 | 1464 ft | 0 kts | 77° |